Succasunna, New Jersey
Current Conditions -  °F | °C
As of 2:35 AM on Thursday 23 Oct 2014 (Local Time) from KMMU Reporting Station
Overcast Overcast  
Wind Chill: 54°   Ceiling: 2200
Heat Index: 54°   Visibility: 10mi
Dew Point: 46°   Wind: 15mph
Humidity: 77%   Direction: 10°N
Pressure: 29.74"   Gusts: 24mph
Location:  40.87°N, 74.64°W
Report Text: KMMU 230635Z AUTO 01013G21KT 330V030 10SM OVC022 12/08 A2974 RMK AO2 LTG DSNT E
Loading
Personal Weather Stations






























Interactive Weather Map
Tropical Storm Tracking
New forecast layout! Learn more

10-Day Weather Forecast

Advertisements
Track Severe Weather on mobile